Portada
METAR-TAF:

METAR-TAF

Aeroports :

Corona, Califòrnia, Estats Units d'Amèrica

latitud: 33-53-52N, longitud: 117-36-09W, altitud: 162 m

Observació

L'informe es va fer fa 22 minuts, a les 15:06 UTC
Vent 3 kt del Oest/Nord-Oest
Temperatura 15°C
Humitat 82%
Pressió 1018 hPa
Visibilitat: 12.9 km
Cel ennuvolat a una alçada de 800 ft

METAR: KAJO 271506Z AUTO 29003KT 8SM BKN008 15/12 A3006 RMK AO2

Hora: 08:28 (15:28 UTC)


TAF: manca

Observacions i pronòstics meteorològics de més de 4000 aeroports (METAR i TAF).

Les estacions disponibles són els punts grocs i vermells al mapa.

Posi el ratolí al punt desitjat per veure el nom de l'estació.

Feu clic per veure les observacions i els pronòstics meteorològics.

Per canviar el mapa: feu clic els botons verds amb una creu de color negre per apropar; al botó verd amb un guió per allunyar la imatge; o en les fletxes verdes per a mapes adjacents.


METAR-TAF: